Terminal Aerodrome Forecast
Issued by NWS Northern Indiana

Home | Current Version | Previous Version | Graphics & Text | Print | Product List | Glossary On
Versions: 1 2 3 4 5 6 7 8 9 10 11 12
000
FTUS43 KIWX 301728
TAFFWA
TAF
KFWA 301728Z 3018/0118 25009KT P6SM SCT110
     FM010000 25010KT P6SM BKN030
     FM011100 24012KT P6SM OVC025
     FM011500 25013G21KT P6SM OVC020=

USA.gov is the U.S. government's official web portal to all federal, state and local government web resources and services.